SWA3119 KMCO-KFLL
Flight info
| Callsign | SWA3119 |
|---|---|
| Flight time | 0h 45m |
| Altitude | 29000 |
| Route | DDANY3 JIPOD CUUDA3 |
| Aircraft | B737/M-SDE2E3FGHIRWXY/LB1 |
Departure
| Time | 2026-04-25 04:58 |
|---|---|
| Airport | Orlando International Airport (KMCO) |
Arrival
| Time | 2026-04-25 05:43 |
|---|---|
| Airport | Fort Lauderdale Hollywood International Airport (KFLL) |
| Time | Latitude | Longitude | Altitude | Speed | Heading |
|---|---|---|---|---|---|
| 2026-04-25 04:22 | 28.43583 | -81.30373 | 100 ft | 0 kts | 131° |
| 2026-04-25 04:43 | 28.43583 | -81.30374 | 100 ft | 0 kts | 131° |
| 2026-04-25 04:43 | 28.43586 | -81.30377 | 100 ft | 1 kts | 131° |
| 2026-04-25 04:44 | 28.43589 | -81.30381 | 100 ft | 1 kts | 131° |
| 2026-04-25 04:44 | 28.43594 | -81.30388 | 100 ft | 1 kts | 131° |
| 2026-04-25 04:44 | 28.43601 | -81.30399 | 99 ft | 2 kts | 90° |
| 2026-04-25 04:44 | 28.43600 | -81.30409 | 98 ft | 2 kts | 81° |
| 2026-04-25 04:45 | 28.43597 | -81.30430 | 98 ft | 2 kts | 79° |
| 2026-04-25 04:45 | 28.43595 | -81.30442 | 98 ft | 1 kts | 57° |
| 2026-04-25 04:45 | 28.43593 | -81.30445 | 98 ft | 0 kts | 53° |
| 2026-04-25 04:45 | 28.43593 | -81.30446 | 98 ft | 0 kts | 53° |
| 2026-04-25 04:47 | 28.43614 | -81.30413 | 98 ft | 10 kts | 52° |
| 2026-04-25 04:48 | 28.43660 | -81.30352 | 100 ft | 11 kts | 50° |
| 2026-04-25 04:48 | 28.43712 | -81.30281 | 100 ft | 13 kts | 51° |
| 2026-04-25 04:48 | 28.43777 | -81.30204 | 100 ft | 14 kts | 28° |
| 2026-04-25 04:48 | 28.43863 | -81.30167 | 100 ft | 13 kts | 21° |
| 2026-04-25 04:49 | 28.43900 | -81.30084 | 102 ft | 13 kts | 90° |
| 2026-04-25 04:49 | 28.43893 | -81.29986 | 103 ft | 12 kts | 105° |
| 2026-04-25 04:49 | 28.43853 | -81.29901 | 103 ft | 12 kts | 127° |
| 2026-04-25 04:49 | 28.43791 | -81.29841 | 102 ft | 13 kts | 149° |
| 2026-04-25 04:50 | 28.43701 | -81.29809 | 103 ft | 15 kts | 173° |
| 2026-04-25 04:50 | 28.43592 | -81.29804 | 103 ft | 16 kts | 179° |
| 2026-04-25 04:50 | 28.43481 | -81.29804 | 103 ft | 16 kts | 180° |
| 2026-04-25 04:50 | 28.43375 | -81.29803 | 102 ft | 15 kts | 180° |
| 2026-04-25 04:51 | 28.43273 | -81.29802 | 102 ft | 14 kts | 179° |
| 2026-04-25 04:51 | 28.43176 | -81.29801 | 102 ft | 14 kts | 179° |
| 2026-04-25 04:51 | 28.43082 | -81.29801 | 102 ft | 13 kts | 179° |
| 2026-04-25 04:51 | 28.42986 | -81.29800 | 102 ft | 15 kts | 179° |
| 2026-04-25 04:52 | 28.42878 | -81.29799 | 102 ft | 16 kts | 179° |
| 2026-04-25 04:52 | 28.42756 | -81.29797 | 102 ft | 18 kts | 180° |
| 2026-04-25 04:52 | 28.42622 | -81.29796 | 102 ft | 19 kts | 180° |
| 2026-04-25 04:52 | 28.42489 | -81.29794 | 102 ft | 19 kts | 179° |
| 2026-04-25 04:53 | 28.42361 | -81.29792 | 101 ft | 18 kts | 180° |
| 2026-04-25 04:53 | 28.42236 | -81.29791 | 101 ft | 18 kts | 179° |
| 2026-04-25 04:53 | 28.42116 | -81.29790 | 101 ft | 18 kts | 179° |
| 2026-04-25 04:53 | 28.41983 | -81.29788 | 101 ft | 20 kts | 179° |
| 2026-04-25 04:54 | 28.41841 | -81.29788 | 101 ft | 20 kts | 180° |
| 2026-04-25 04:54 | 28.41703 | -81.29787 | 101 ft | 19 kts | 179° |
| 2026-04-25 04:54 | 28.41572 | -81.29785 | 101 ft | 19 kts | 179° |
| 2026-04-25 04:54 | 28.41442 | -81.29783 | 101 ft | 18 kts | 179° |
| 2026-04-25 04:55 | 28.41317 | -81.29781 | 100 ft | 18 kts | 179° |
| 2026-04-25 04:55 | 28.41197 | -81.29780 | 100 ft | 17 kts | 179° |
| 2026-04-25 04:55 | 28.41081 | -81.29778 | 100 ft | 16 kts | 179° |
| 2026-04-25 04:55 | 28.40969 | -81.29777 | 98 ft | 16 kts | 179° |
| 2026-04-25 04:56 | 28.40862 | -81.29774 | 99 ft | 15 kts | 173° |
| 2026-04-25 04:56 | 28.40821 | -81.29678 | 97 ft | 14 kts | 89° |
| 2026-04-25 04:56 | 28.40821 | -81.29668 | 98 ft | 0 kts | 89° |
| 2026-04-25 04:56 | 28.40821 | -81.29666 | 98 ft | 0 kts | 89° |
| 2026-04-25 04:57 | 28.40821 | -81.29647 | 97 ft | 8 kts | 89° |
| 2026-04-25 04:57 | 28.40861 | -81.29562 | 96 ft | 22 kts | 15° |
| 2026-04-25 04:57 | 28.41191 | -81.29564 | 100 ft | 80 kts | 360° |
| 2026-04-25 04:57 | 28.41962 | -81.29571 | 104 ft | 139 kts | 359° |
| 2026-04-25 04:58 | 28.43044 | -81.29575 | 294 ft | 165 kts | 0° |
| 2026-04-25 04:58 | 28.44267 | -81.29536 | 624 ft | 190 kts | 3° |
| 2026-04-25 04:58 | 28.45534 | -81.29192 | 1300 ft | 184 kts | 38° |
| 2026-04-25 04:58 | 28.46326 | -81.28111 | 2013 ft | 183 kts | 58° |
| 2026-04-25 04:59 | 28.47110 | -81.26826 | 2434 ft | 214 kts | 56° |
| 2026-04-25 04:59 | 28.48031 | -81.25363 | 2802 ft | 237 kts | 55° |
| 2026-04-25 04:59 | 28.49046 | -81.23792 | 3309 ft | 259 kts | 54° |
| 2026-04-25 04:59 | 28.50082 | -81.22121 | 4151 ft | 264 kts | 63° |
| 2026-04-25 05:00 | 28.50655 | -81.20128 | 4759 ft | 263 kts | 78° |
| 2026-04-25 05:00 | 28.51000 | -81.18108 | 4974 ft | 264 kts | 79° |
| 2026-04-25 05:00 | 28.51049 | -81.16032 | 4996 ft | 268 kts | 101° |
| 2026-04-25 05:00 | 28.50574 | -81.13958 | 5749 ft | 274 kts | 105° |
| 2026-04-25 05:01 | 28.50086 | -81.11871 | 7051 ft | 274 kts | 104° |
| 2026-04-25 05:01 | 28.49596 | -81.09742 | 8100 ft | 283 kts | 104° |
| 2026-04-25 05:01 | 28.49090 | -81.07523 | 9107 ft | 294 kts | 104° |
| 2026-04-25 05:01 | 28.48443 | -81.05308 | 10186 ft | 299 kts | 120° |
| 2026-04-25 05:02 | 28.47075 | -81.03451 | 10814 ft | 320 kts | 140° |
| 2026-04-25 05:02 | 28.45268 | -81.01757 | 11096 ft | 351 kts | 143° |
| 2026-04-25 05:02 | 28.43300 | -81.00023 | 11822 ft | 364 kts | 144° |
| 2026-04-25 05:02 | 28.41281 | -80.98248 | 12803 ft | 369 kts | 143° |
| 2026-04-25 05:03 | 28.39253 | -80.96442 | 13814 ft | 373 kts | 143° |
| 2026-04-25 05:03 | 28.37225 | -80.94615 | 14661 ft | 379 kts | 143° |
| 2026-04-25 05:03 | 28.35147 | -80.92730 | 15524 ft | 385 kts | 143° |
| 2026-04-25 05:03 | 28.33039 | -80.90812 | 16406 ft | 390 kts | 143° |
| 2026-04-25 05:04 | 28.30906 | -80.88872 | 17272 ft | 395 kts | 143° |
| 2026-04-25 05:04 | 28.28784 | -80.86864 | 18088 ft | 403 kts | 136° |
| 2026-04-25 05:04 | 28.27154 | -80.84243 | 18798 ft | 412 kts | 116° |
| 2026-04-25 05:04 | 28.26046 | -80.81225 | 19560 ft | 416 kts | 112° |
| 2026-04-25 05:05 | 28.24994 | -80.78150 | 20287 ft | 421 kts | 111° |
| 2026-04-25 05:05 | 28.23926 | -80.75034 | 20956 ft | 426 kts | 111° |
| 2026-04-25 05:05 | 28.22819 | -80.71888 | 21650 ft | 431 kts | 112° |
| 2026-04-25 05:05 | 28.21684 | -80.68726 | 22315 ft | 436 kts | 112° |
| 2026-04-25 05:06 | 28.20535 | -80.65513 | 22970 ft | 441 kts | 111° |
| 2026-04-25 05:06 | 28.19436 | -80.62249 | 23588 ft | 446 kts | 110° |
| 2026-04-25 05:06 | 28.18370 | -80.58978 | 24124 ft | 450 kts | 109° |
| 2026-04-25 05:06 | 28.17284 | -80.55629 | 24697 ft | 453 kts | 109° |
| 2026-04-25 05:07 | 28.16188 | -80.52268 | 25286 ft | 455 kts | 110° |
| 2026-04-25 05:07 | 28.15080 | -80.48902 | 25888 ft | 457 kts | 110° |
| 2026-04-25 05:07 | 28.13957 | -80.45511 | 26415 ft | 461 kts | 110° |
| 2026-04-25 05:07 | 28.12824 | -80.42096 | 26890 ft | 466 kts | 110° |
| 2026-04-25 05:08 | 28.11677 | -80.38646 | 27370 ft | 469 kts | 110° |
| 2026-04-25 05:08 | 28.10330 | -80.35274 | 27804 ft | 474 kts | 123° |
| 2026-04-25 05:08 | 28.08172 | -80.32442 | 28070 ft | 478 kts | 140° |
| 2026-04-25 05:08 | 28.05396 | -80.30375 | 28069 ft | 478 kts | 157° |
| 2026-04-25 05:09 | 28.02309 | -80.29053 | 28056 ft | 473 kts | 163° |
| 2026-04-25 05:09 | 27.96093 | -80.26741 | 28061 ft | 470 kts | 164° |
| 2026-04-25 05:10 | 27.89873 | -80.24407 | 28065 ft | 471 kts | 163° |
| 2026-04-25 05:10 | 27.83659 | -80.21997 | 28064 ft | 472 kts | 163° |
| 2026-04-25 05:11 | 27.77481 | -80.19578 | 28073 ft | 475 kts | 163° |
| 2026-04-25 05:11 | 27.71214 | -80.17130 | 28060 ft | 477 kts | 163° |
| 2026-04-25 05:12 | 27.61809 | -80.13466 | 28057 ft | 476 kts | 163° |
| 2026-04-25 05:12 | 27.55578 | -80.10924 | 28061 ft | 475 kts | 162° |
| 2026-04-25 05:13 | 27.49375 | -80.08339 | 28063 ft | 475 kts | 162° |
| 2026-04-25 05:13 | 27.43209 | -80.05793 | 28062 ft | 475 kts | 162° |
| 2026-04-25 05:14 | 27.36989 | -80.03298 | 28052 ft | 474 kts | 165° |
| 2026-04-25 05:14 | 27.33821 | -80.02298 | 27708 ft | 474 kts | 168° |
| 2026-04-25 05:15 | 27.27570 | -80.00502 | 27112 ft | 447 kts | 168° |
| 2026-04-25 05:15 | 27.24615 | -79.99600 | 26728 ft | 435 kts | 166° |
| 2026-04-25 05:15 | 27.21735 | -79.98596 | 26076 ft | 432 kts | 164° |
| 2026-04-25 05:15 | 27.18894 | -79.97538 | 25467 ft | 428 kts | 164° |
| 2026-04-25 05:16 | 27.16087 | -79.96486 | 24858 ft | 424 kts | 164° |
| 2026-04-25 05:16 | 27.13296 | -79.95456 | 24223 ft | 421 kts | 164° |
| 2026-04-25 05:16 | 27.10520 | -79.94448 | 23587 ft | 418 kts | 165° |
| 2026-04-25 05:16 | 27.07799 | -79.93468 | 22895 ft | 414 kts | 165° |
| 2026-04-25 05:17 | 27.05076 | -79.92462 | 22297 ft | 409 kts | 163° |
| 2026-04-25 05:17 | 27.02408 | -79.91395 | 21692 ft | 404 kts | 162° |
| 2026-04-25 05:17 | 26.99776 | -79.90312 | 21078 ft | 400 kts | 162° |
| 2026-04-25 05:17 | 26.97180 | -79.89242 | 20473 ft | 396 kts | 162° |
| 2026-04-25 05:18 | 26.94599 | -79.88187 | 19885 ft | 392 kts | 163° |
| 2026-04-25 05:18 | 26.92072 | -79.87161 | 19302 ft | 389 kts | 163° |
| 2026-04-25 05:18 | 26.89502 | -79.86123 | 18684 ft | 386 kts | 163° |
| 2026-04-25 05:18 | 26.87013 | -79.85121 | 18049 ft | 384 kts | 163° |
| 2026-04-25 05:19 | 26.84513 | -79.84115 | 17392 ft | 380 kts | 163° |
| 2026-04-25 05:19 | 26.82044 | -79.83121 | 17062 ft | 369 kts | 163° |
| 2026-04-25 05:19 | 26.79668 | -79.82164 | 16612 ft | 361 kts | 163° |
| 2026-04-25 05:19 | 26.77315 | -79.81219 | 16149 ft | 356 kts | 163° |
| 2026-04-25 05:20 | 26.75002 | -79.80290 | 15666 ft | 351 kts | 163° |
| 2026-04-25 05:20 | 26.72720 | -79.79373 | 15155 ft | 347 kts | 163° |
| 2026-04-25 05:20 | 26.70405 | -79.78730 | 14623 ft | 339 kts | 180° |
| 2026-04-25 05:20 | 26.68110 | -79.79006 | 14158 ft | 328 kts | 199° |
| 2026-04-25 05:21 | 26.65968 | -79.79824 | 13650 ft | 324 kts | 203° |
| 2026-04-25 05:21 | 26.63869 | -79.80723 | 13089 ft | 322 kts | 204° |
| 2026-04-25 05:21 | 26.61786 | -79.81615 | 12551 ft | 319 kts | 203° |
| 2026-04-25 05:21 | 26.59709 | -79.82483 | 12032 ft | 317 kts | 202° |
| 2026-04-25 05:22 | 26.57647 | -79.83329 | 11545 ft | 314 kts | 202° |
| 2026-04-25 05:22 | 26.55656 | -79.84140 | 11411 ft | 303 kts | 202° |
| 2026-04-25 05:22 | 26.53693 | -79.84998 | 10921 ft | 303 kts | 205° |
| 2026-04-25 05:22 | 26.51749 | -79.85919 | 10463 ft | 303 kts | 205° |
| 2026-04-25 05:23 | 26.49845 | -79.86831 | 10266 ft | 289 kts | 205° |
| 2026-04-25 05:23 | 26.48029 | -79.87697 | 10114 ft | 279 kts | 205° |
| 2026-04-25 05:23 | 26.46249 | -79.88542 | 9729 ft | 278 kts | 205° |
| 2026-04-25 05:23 | 26.44480 | -79.89377 | 9355 ft | 275 kts | 204° |
| 2026-04-25 05:24 | 26.42724 | -79.90204 | 8972 ft | 273 kts | 204° |
| 2026-04-25 05:24 | 26.40977 | -79.91024 | 8607 ft | 271 kts | 204° |
| 2026-04-25 05:24 | 26.39242 | -79.91838 | 8238 ft | 269 kts | 204° |
| 2026-04-25 05:24 | 26.37556 | -79.92690 | 8052 ft | 261 kts | 209° |
| 2026-04-25 05:25 | 26.35976 | -79.93698 | 7954 ft | 263 kts | 211° |
| 2026-04-25 05:25 | 26.34391 | -79.94752 | 7842 ft | 268 kts | 211° |
| 2026-04-25 05:25 | 26.32773 | -79.95818 | 7740 ft | 271 kts | 211° |
| 2026-04-25 05:25 | 26.31143 | -79.96878 | 7635 ft | 271 kts | 211° |
| 2026-04-25 05:26 | 26.29507 | -79.97932 | 7533 ft | 271 kts | 210° |
| 2026-04-25 05:26 | 26.27874 | -79.98981 | 7431 ft | 271 kts | 210° |
| 2026-04-25 05:26 | 26.26247 | -80.00026 | 7329 ft | 270 kts | 210° |
| 2026-04-25 05:26 | 26.24618 | -80.01073 | 7230 ft | 270 kts | 210° |
| 2026-04-25 05:27 | 26.23011 | -80.02106 | 7128 ft | 270 kts | 210° |
| 2026-04-25 05:27 | 26.21385 | -80.03150 | 7027 ft | 269 kts | 210° |
| 2026-04-25 05:27 | 26.19767 | -80.04189 | 6934 ft | 269 kts | 210° |
| 2026-04-25 05:27 | 26.18279 | -80.05431 | 6815 ft | 268 kts | 231° |
| 2026-04-25 05:28 | 26.17696 | -80.07069 | 8024 ft | 168 kts | 296° |
| 2026-04-25 05:28 | 26.18333 | -80.08257 | 8656 ft | 203 kts | 304° |
| 2026-04-25 05:28 | 26.19330 | -80.09694 | 7270 ft | 268 kts | 303° |
| 2026-04-25 05:28 | 26.19891 | -80.11723 | 6638 ft | 279 kts | 265° |
| 2026-04-25 05:29 | 26.19277 | -80.13692 | 6569 ft | 267 kts | 237° |
| 2026-04-25 05:29 | 26.18240 | -80.15409 | 6480 ft | 267 kts | 237° |
| 2026-04-25 05:29 | 26.17222 | -80.17139 | 6320 ft | 268 kts | 237° |
| 2026-04-25 05:29 | 26.16350 | -80.18963 | 6167 ft | 265 kts | 247° |
| 2026-04-25 05:30 | 26.15780 | -80.20900 | 6061 ft | 262 kts | 256° |
| 2026-04-25 05:30 | 26.15431 | -80.22885 | 5959 ft | 261 kts | 261° |
| 2026-04-25 05:30 | 26.15230 | -80.24900 | 5875 ft | 263 kts | 265° |
| 2026-04-25 05:30 | 26.15132 | -80.26947 | 5790 ft | 267 kts | 268° |
| 2026-04-25 05:31 | 26.15096 | -80.29026 | 5696 ft | 269 kts | 269° |
| 2026-04-25 05:31 | 26.15071 | -80.31118 | 5587 ft | 271 kts | 269° |
| 2026-04-25 05:31 | 26.15045 | -80.33212 | 5478 ft | 271 kts | 269° |
| 2026-04-25 05:31 | 26.15205 | -80.35293 | 5361 ft | 271 kts | 287° |
| 2026-04-25 05:32 | 26.16152 | -80.37083 | 5280 ft | 269 kts | 313° |
| 2026-04-25 05:32 | 26.17455 | -80.38521 | 5238 ft | 261 kts | 317° |
| 2026-04-25 05:32 | 26.18748 | -80.39861 | 5231 ft | 249 kts | 317° |
| 2026-04-25 05:32 | 26.20012 | -80.41164 | 5232 ft | 247 kts | 317° |
| 2026-04-25 05:33 | 26.21274 | -80.42457 | 5222 ft | 246 kts | 318° |
| 2026-04-25 05:33 | 26.22533 | -80.43746 | 5391 ft | 239 kts | 317° |
| 2026-04-25 05:33 | 26.23754 | -80.44992 | 5834 ft | 257 kts | 317° |
| 2026-04-25 05:33 | 26.25030 | -80.46558 | 5438 ft | 272 kts | 301° |
| 2026-04-25 05:34 | 26.25517 | -80.47835 | 5223 ft | 270 kts | 282° |
| 2026-04-25 05:34 | 26.25482 | -80.49859 | 5097 ft | 257 kts | 251° |
| 2026-04-25 05:34 | 26.24606 | -80.51497 | 5051 ft | 243 kts | 221° |
| 2026-04-25 05:34 | 26.23158 | -80.52355 | 5048 ft | 235 kts | 189° |
| 2026-04-25 05:35 | 26.21583 | -80.52235 | 5038 ft | 224 kts | 157° |
| 2026-04-25 05:35 | 26.20377 | -80.51250 | 5004 ft | 214 kts | 133° |
| 2026-04-25 05:35 | 26.19244 | -80.50173 | 4805 ft | 211 kts | 142° |
| 2026-04-25 05:35 | 26.18094 | -80.49181 | 4716 ft | 206 kts | 141° |
| 2026-04-25 05:36 | 26.16976 | -80.48200 | 4474 ft | 205 kts | 141° |
| 2026-04-25 05:36 | 26.15859 | -80.47219 | 4232 ft | 204 kts | 141° |
| 2026-04-25 05:36 | 26.14747 | -80.46250 | 3985 ft | 202 kts | 141° |
| 2026-04-25 05:36 | 26.13637 | -80.45291 | 3753 ft | 202 kts | 141° |
| 2026-04-25 05:37 | 26.12530 | -80.44334 | 3492 ft | 201 kts | 141° |
| 2026-04-25 05:37 | 26.11488 | -80.43312 | 3249 ft | 199 kts | 134° |
| 2026-04-25 05:37 | 26.10500 | -80.42238 | 3018 ft | 198 kts | 135° |
| 2026-04-25 05:37 | 26.09506 | -80.41212 | 2803 ft | 191 kts | 137° |
| 2026-04-25 05:38 | 26.08550 | -80.40224 | 2580 ft | 184 kts | 129° |
| 2026-04-25 05:38 | 26.07978 | -80.38993 | 2416 ft | 176 kts | 108° |
| 2026-04-25 05:38 | 26.07821 | -80.37665 | 2219 ft | 172 kts | 92° |
| 2026-04-25 05:38 | 26.07807 | -80.36333 | 1997 ft | 172 kts | 91° |
| 2026-04-25 05:39 | 26.07797 | -80.35020 | 1951 ft | 173 kts | 91° |
| 2026-04-25 05:39 | 26.07790 | -80.33682 | 1907 ft | 172 kts | 91° |
| 2026-04-25 05:39 | 26.07782 | -80.32355 | 1863 ft | 172 kts | 91° |
| 2026-04-25 05:39 | 26.07775 | -80.31048 | 1861 ft | 166 kts | 91° |
| 2026-04-25 05:40 | 26.07768 | -80.29794 | 1860 ft | 161 kts | 91° |
| 2026-04-25 05:40 | 26.07761 | -80.28552 | 1843 ft | 159 kts | 91° |
| 2026-04-25 05:40 | 26.07755 | -80.27332 | 1871 ft | 158 kts | 92° |
| 2026-04-25 05:40 | 26.07751 | -80.26096 | 1683 ft | 163 kts | 91° |
| 2026-04-25 05:41 | 26.07746 | -80.24880 | 1461 ft | 152 kts | 92° |
| 2026-04-25 05:41 | 26.07739 | -80.23755 | 1292 ft | 138 kts | 92° |
| 2026-04-25 05:41 | 26.07733 | -80.22749 | 1119 ft | 123 kts | 92° |
| 2026-04-25 05:41 | 26.07726 | -80.21813 | 990 ft | 121 kts | 91° |
| 2026-04-25 05:42 | 26.07720 | -80.20861 | 809 ft | 122 kts | 91° |
| 2026-04-25 05:42 | 26.07715 | -80.19903 | 649 ft | 124 kts | 94° |
| 2026-04-25 05:42 | 26.07709 | -80.18949 | 478 ft | 124 kts | 93° |
| 2026-04-25 05:42 | 26.07703 | -80.17985 | 337 ft | 128 kts | 92° |
| 2026-04-25 05:43 | 26.07697 | -80.17006 | 152 ft | 123 kts | 92° |
| 2026-04-25 05:43 | 26.07692 | -80.16088 | 28 ft | 111 kts | 93° |
| 2026-04-25 05:43 | 26.07692 | -80.15417 | 17 ft | 37 kts | 89° |
| 2026-04-25 05:43 | 26.07680 | -80.15176 | 16 ft | 30 kts | 114° |
| 2026-04-25 05:44 | 26.07593 | -80.15124 | 16 ft | 0 kts | 174° |
| 2026-04-25 05:45 | 26.07570 | -80.15108 | 17 ft | 13 kts | 123° |
| 2026-04-25 05:45 | 26.07562 | -80.14966 | 19 ft | 19 kts | 90° |
| 2026-04-25 05:45 | 26.07557 | -80.14824 | 22 ft | 18 kts | 108° |
| 2026-04-25 05:45 | 26.07493 | -80.14710 | 23 ft | 17 kts | 101° |
| 2026-04-25 05:46 | 26.07489 | -80.14577 | 25 ft | 17 kts | 90° |
| 2026-04-25 05:46 | 26.07488 | -80.14449 | 24 ft | 16 kts | 90° |
| 2026-04-25 05:46 | 26.07488 | -80.14323 | 22 ft | 17 kts | 90° |
| 2026-04-25 05:46 | 26.07485 | -80.14211 | 23 ft | 13 kts | 95° |
| 2026-04-25 05:47 | 26.07486 | -80.14116 | 23 ft | 12 kts | 89° |
| 2026-04-25 05:47 | 26.07486 | -80.14018 | 21 ft | 14 kts | 90° |
| 2026-04-25 05:47 | 26.07479 | -80.13895 | 17 ft | 18 kts | 99° |
| 2026-04-25 05:47 | 26.07467 | -80.13765 | 16 ft | 14 kts | 108° |
| 2026-04-25 05:48 | 26.07388 | -80.13734 | 18 ft | 8 kts | 177° |
| 2026-04-25 05:48 | 26.07344 | -80.13761 | 18 ft | 8 kts | 245° |
| 2026-04-25 05:48 | 26.07333 | -80.13787 | 20 ft | 0 kts | 244° |